Alpine, Wyoming
Current Conditions -  °F | °C
As of 9:15 AM on Thursday 29 Jan 2015 (Local Time) from KAFO Reporting Station
Clear Clear  
Wind Chill: 27°   Ceiling: Unl
Heat Index: 27°   Visibility: 10mi
Dew Point: 21°   Wind: 0mph
Humidity: 80%   Direction: NA
Pressure: 30.42"   Gusts: NA
Location:  43.18°N, 111.03°W
Report Text: KAFO 291615Z AUTO 00000KT 10SM CLR M03/M06 A3042 RMK AO2
Loading
Personal Weather Stations






























Interactive Weather Map New forecast layout! Learn more

10-Day Weather Forecast

Advertisements
Track Severe Weather on mobile